createdAt,value
2023-04-09T00:00:01.917Z,17.52
2023-04-09T00:02:29.758Z,10.82
2023-04-09T00:04:59.949Z,12.10
2023-04-09T00:07:28.164Z,17.98
2023-04-09T00:09:55.823Z,12.70
2023-04-09T00:12:26.755Z,15.52
2023-04-09T00:14:54.421Z,20.48
2023-04-09T00:17:24.707Z,21.67
2023-04-09T00:19:52.654Z,20.00
2023-04-09T00:22:20.402Z,19.85
2023-04-09T00:24:48.100Z,19.02
2023-04-09T00:27:15.939Z,18.00
2023-04-09T00:29:43.684Z,18.73
2023-04-09T00:32:11.682Z,23.98
2023-04-09T00:34:39.431Z,34.70
2023-04-09T00:37:07.663Z,17.27
2023-04-09T00:39:35.507Z,19.45
2023-04-09T00:42:06.199Z,19.73
2023-04-09T00:44:33.957Z,25.98
2023-04-09T00:47:01.835Z,19.25
2023-04-09T00:49:29.769Z,67.65
2023-04-09T00:51:57.574Z,77.50
2023-04-09T00:54:25.180Z,21.50
2023-04-09T00:56:53.384Z,37.92
2023-04-09T00:59:21.084Z,19.88
2023-04-09T01:01:48.896Z,17.88
2023-04-09T01:04:16.881Z,35.42
2023-04-09T01:06:57.112Z,79.30
2023-04-09T01:09:38.869Z,69.93
2023-04-09T01:12:25.174Z,42.55
2023-04-09T01:14:57.864Z,50.45
2023-04-09T01:17:35.781Z,16.30
2023-04-09T01:20:11.254Z,20.20
2023-04-09T01:22:57.060Z,53.60
2023-04-09T01:25:43.354Z,16.75
2023-04-09T01:28:20.984Z,52.42
2023-04-09T01:30:54.248Z,35.92
2023-04-09T01:33:23.184Z,18.23
2023-04-09T01:35:52.095Z,22.20
2023-04-09T01:38:22.560Z,17.38
2023-04-09T01:40:51.183Z,17.95
2023-04-09T01:43:21.481Z,18.23
2023-04-09T01:45:49.647Z,28.80
2023-04-09T01:48:17.508Z,21.17
2023-04-09T01:50:47.771Z,20.50
2023-04-09T01:53:18.020Z,17.33
2023-04-09T01:55:45.768Z,22.90
2023-04-09T01:58:13.489Z,29.55
2023-04-09T02:00:43.809Z,18.42
2023-04-09T02:03:17.631Z,25.52
2023-04-09T02:05:51.386Z,20.13
2023-04-09T02:08:22.045Z,45.03
2023-04-09T02:10:55.591Z,41.85
2023-04-09T02:13:25.987Z,38.58
2023-04-09T02:15:53.961Z,51.75
2023-04-09T02:18:25.393Z,34.15
2023-04-09T02:20:55.672Z,34.50
2023-04-09T02:23:29.592Z,38.53
2023-04-09T02:25:57.514Z,54.90
2023-04-09T02:28:25.245Z,32.67
2023-04-09T02:30:53.285Z,40.15
2023-04-09T02:33:21.088Z,66.47
2023-04-09T02:35:49.469Z,118.65
2023-04-09T02:38:17.687Z,140.40
2023-04-09T02:40:45.659Z,99.03
2023-04-09T02:43:13.447Z,109.35
2023-04-09T02:45:41.263Z,71.47
2023-04-09T02:48:09.034Z,117.85
2023-04-09T02:50:36.771Z,138.70
2023-04-09T02:53:04.548Z,144.43
2023-04-09T02:55:34.641Z,154.13
2023-04-09T02:58:02.243Z,128.55
2023-04-09T03:00:30.013Z,132.77
2023-04-09T03:02:58.413Z,129.45
2023-04-09T03:05:26.352Z,85.30
2023-04-09T03:07:54.673Z,125.10
2023-04-09T03:10:22.258Z,114.70
2023-04-09T03:12:52.827Z,124.95
2023-04-09T03:15:20.668Z,75.88
2023-04-09T03:17:48.533Z,84.43
2023-04-09T03:20:16.443Z,80.60
2023-04-09T03:22:44.221Z,64.57
2023-04-09T03:25:14.237Z,47.33
2023-04-09T03:27:42.070Z,115.85
2023-04-09T03:30:10.235Z,111.97
2023-04-09T03:32:37.817Z,77.97
2023-04-09T03:35:06.114Z,71.45
2023-04-09T03:37:34.483Z,89.68
2023-04-09T03:40:04.624Z,91.05
2023-04-09T03:42:32.367Z,128.50
2023-04-09T03:45:00.160Z,119.63
2023-04-09T03:47:28.042Z,45.15
2023-04-09T03:49:55.876Z,89.32
2023-04-09T03:52:23.941Z,80.55
2023-04-09T03:54:51.803Z,124.78
2023-04-09T03:57:19.564Z,81.15
2023-04-09T03:59:49.913Z,66.78
2023-04-09T04:02:17.777Z,74.25
2023-04-09T04:04:45.624Z,83.38
2023-04-09T04:07:13.422Z,85.78
2023-04-09T04:09:44.297Z,92.10
2023-04-09T04:12:11.989Z,77.15
2023-04-09T04:14:39.806Z,73.57
2023-04-09T04:17:07.518Z,47.83
2023-04-09T04:19:35.369Z,80.93
2023-04-09T04:22:03.286Z,70.15
2023-04-09T04:24:31.081Z,79.57
2023-04-09T04:26:58.988Z,114.32
2023-04-09T04:29:28.576Z,128.63
2023-04-09T04:31:56.476Z,102.25
2023-04-09T04:34:24.517Z,65.47
2023-04-09T04:36:52.673Z,54.83
2023-04-09T04:39:20.392Z,86.60
2023-04-09T04:41:48.148Z,61.67
2023-04-09T04:44:16.227Z,78.78
2023-04-09T04:46:43.981Z,106.38
2023-04-09T04:49:11.590Z,150.80
2023-04-09T04:51:39.256Z,148.75
2023-04-09T04:54:07.032Z,216.90
2023-04-09T04:56:34.666Z,158.60
2023-04-09T04:59:05.902Z,126.53
2023-04-09T05:01:33.738Z,125.95
2023-04-09T05:04:04.696Z,140.30
2023-04-09T05:06:34.788Z,154.45
2023-04-09T05:09:02.509Z,195.77
2023-04-09T05:11:32.760Z,206.15
2023-04-09T05:14:00.543Z,240.73
2023-04-09T05:16:28.208Z,196.55
2023-04-09T05:18:55.855Z,205.00
2023-04-09T05:21:23.938Z,251.07
2023-04-09T05:23:51.653Z,239.88
2023-04-09T05:26:19.321Z,157.40
2023-04-09T05:28:47.517Z,186.13
2023-04-09T05:31:18.335Z,204.93
2023-04-09T05:33:46.294Z,176.38
2023-04-09T05:36:17.422Z,228.18
2023-04-09T05:38:46.032Z,188.90
2023-04-09T05:41:13.781Z,183.90
2023-04-09T05:43:42.923Z,139.05
2023-04-09T05:46:10.771Z,85.65
2023-04-09T05:48:38.475Z,81.65
2023-04-09T05:51:06.370Z,118.60
2023-04-09T05:53:34.059Z,103.88
2023-04-09T05:56:01.710Z,122.72
2023-04-09T05:58:32.703Z,127.93
2023-04-09T06:01:00.370Z,123.00
2023-04-09T06:03:28.916Z,101.70
2023-04-09T06:05:57.283Z,120.15
2023-04-09T06:08:25.027Z,125.85
2023-04-09T06:10:52.709Z,115.32
2023-04-09T06:13:21.447Z,127.03
2023-04-09T06:15:49.249Z,122.63
2023-04-09T06:18:17.277Z,136.88
2023-04-09T06:20:44.949Z,123.45
2023-04-09T06:23:12.709Z,141.82
2023-04-09T06:25:40.412Z,166.07
2023-04-09T06:28:08.861Z,161.18
2023-04-09T06:30:37.231Z,138.55
2023-04-09T06:33:04.990Z,125.75
2023-04-09T06:35:32.907Z,114.60
2023-04-09T06:38:01.115Z,115.55
2023-04-09T06:40:29.005Z,129.63
2023-04-09T06:42:56.843Z,108.72
2023-04-09T06:45:24.464Z,113.00
2023-04-09T06:47:52.650Z,86.38
2023-04-09T06:50:21.006Z,94.93
2023-04-09T06:52:52.452Z,118.72
2023-04-09T06:55:20.053Z,122.95
2023-04-09T06:57:47.716Z,114.93
2023-04-09T07:00:15.700Z,134.18
2023-04-09T07:02:43.752Z,94.13
2023-04-09T07:05:12.029Z,79.68
2023-04-09T07:07:39.746Z,95.82
2023-04-09T07:10:07.757Z,58.78
2023-04-09T07:12:35.848Z,70.82
2023-04-09T07:15:05.041Z,75.28
2023-04-09T07:17:33.023Z,75.80
2023-04-09T07:20:00.769Z,102.50
2023-04-09T07:22:30.095Z,71.68
2023-04-09T07:24:57.851Z,44.30
2023-04-09T07:27:26.464Z,62.92
2023-04-09T07:30:00.563Z,65.10
2023-04-09T07:32:29.214Z,28.98
2023-04-09T07:34:57.701Z,77.80
2023-04-09T07:37:26.257Z,62.20
2023-04-09T07:39:54.005Z,55.40
2023-04-09T07:42:27.418Z,58.35
2023-04-09T07:44:55.282Z,21.50
2023-04-09T07:47:23.269Z,18.92
2023-04-09T07:49:51.433Z,46.58
2023-04-09T07:52:20.466Z,19.73
2023-04-09T07:54:48.292Z,22.92
2023-04-09T07:57:16.097Z,23.95
2023-04-09T07:59:43.835Z,21.02
2023-04-09T08:02:14.338Z,79.20
2023-04-09T08:04:43.090Z,31.15
2023-04-09T08:07:11.594Z,21.65
2023-04-09T08:09:39.201Z,75.03
2023-04-09T08:12:06.841Z,40.47
2023-04-09T08:14:34.994Z,14.48
2023-04-09T08:17:02.868Z,11.82
2023-04-09T08:19:30.647Z,14.88
2023-04-09T08:21:58.889Z,24.45
2023-04-09T08:24:26.785Z,12.43
2023-04-09T08:26:54.692Z,17.05
2023-04-09T08:29:22.658Z,11.73
2023-04-09T08:31:50.834Z,16.13
2023-04-09T08:34:21.239Z,13.82
2023-04-09T08:36:50.191Z,11.98
2023-04-09T08:39:21.291Z,14.55
2023-04-09T08:41:49.303Z,25.45
2023-04-09T08:44:17.736Z,64.13
2023-04-09T08:46:45.480Z,36.85
2023-04-09T08:49:13.094Z,81.43
2023-04-09T08:51:41.504Z,100.00
2023-04-09T08:54:09.333Z,20.88
2023-04-09T08:56:36.897Z,95.22
2023-04-09T08:59:04.446Z,47.85
2023-04-09T09:01:32.718Z,84.70
2023-04-09T09:04:00.537Z,100.30
2023-04-09T09:06:30.206Z,18.60
2023-04-09T09:11:47.547Z,57.95
2023-04-09T09:14:16.388Z,40.85
2023-04-09T09:16:45.201Z,20.23
2023-04-09T09:19:28.129Z,41.90
2023-04-09T09:21:58.712Z,23.65
2023-04-09T09:24:26.465Z,19.33
2023-04-09T09:27:00.193Z,44.80
2023-04-09T09:29:28.738Z,13.25
2023-04-09T09:31:56.879Z,10.57
2023-04-09T09:34:25.251Z,16.88
2023-04-09T09:36:55.680Z,17.05
2023-04-09T09:39:23.391Z,17.52
2023-04-09T09:42:08.530Z,17.90
2023-04-09T09:44:36.323Z,32.10
2023-04-09T09:47:04.906Z,87.95
2023-04-09T09:49:34.976Z,96.95
2023-04-09T09:52:06.110Z,26.83
2023-04-09T09:54:40.066Z,14.27
2023-04-09T09:57:08.817Z,18.95
2023-04-09T09:59:39.113Z,116.82
2023-04-09T10:02:11.316Z,88.70
2023-04-09T10:04:39.658Z,72.72
2023-04-09T10:07:08.301Z,54.17
2023-04-09T10:09:38.695Z,32.50
2023-04-09T10:12:07.162Z,24.55
2023-04-09T10:14:36.221Z,16.70
2023-04-09T10:17:04.242Z,13.80
2023-04-09T10:19:41.201Z,8.27
2023-04-09T10:22:11.940Z,15.30
2023-04-09T10:24:39.662Z,12.85
2023-04-09T10:27:13.688Z,14.60
2023-04-09T10:29:49.612Z,17.17
2023-04-09T10:32:21.860Z,11.32
2023-04-09T10:34:50.860Z,16.38
2023-04-09T10:37:22.599Z,7.03
2023-04-09T10:39:54.506Z,11.48
2023-04-09T10:42:27.516Z,10.20
2023-04-09T10:45:16.929Z,9.98
2023-04-09T10:47:46.344Z,12.77
2023-04-09T10:50:18.236Z,10.57
2023-04-09T10:52:45.862Z,12.90
2023-04-09T10:55:40.656Z,11.18
2023-04-09T10:58:12.294Z,12.20
2023-04-09T11:00:42.836Z,6.88
2023-04-09T11:03:10.960Z,10.85
2023-04-09T11:05:41.168Z,15.18
2023-04-09T11:08:09.867Z,14.07
2023-04-09T11:10:42.636Z,10.18
2023-04-09T11:13:13.814Z,6.78
2023-04-09T11:15:41.911Z,5.47
2023-04-09T11:18:14.053Z,6.22
2023-04-09T11:20:41.760Z,4.93
2023-04-09T11:23:09.456Z,7.15
2023-04-09T11:25:37.034Z,12.38
2023-04-09T11:28:05.267Z,10.02
2023-04-09T11:30:34.521Z,5.85
2023-04-09T11:33:02.502Z,9.60
2023-04-09T11:35:30.274Z,5.63
2023-04-09T11:37:58.401Z,12.70
2023-04-09T11:40:29.360Z,12.00
2023-04-09T11:42:57.615Z,13.55
2023-04-09T11:45:28.979Z,9.23
2023-04-09T11:47:56.587Z,8.27
2023-04-09T11:50:24.636Z,11.13
2023-04-09T11:52:52.640Z,4.88
2023-04-09T11:55:32.342Z,9.88
2023-04-09T11:58:05.570Z,6.20
2023-04-09T12:00:33.446Z,10.45
2023-04-09T12:03:03.992Z,5.32
2023-04-09T12:05:33.730Z,6.18
2023-04-09T12:08:02.115Z,5.47
2023-04-09T12:10:30.496Z,5.65
2023-04-09T12:13:03.504Z,9.18
2023-04-09T12:15:35.291Z,4.75
2023-04-09T12:18:03.763Z,9.77
2023-04-09T12:20:42.385Z,7.63
2023-04-09T12:23:10.311Z,5.35
2023-04-09T12:25:42.886Z,5.78
2023-04-09T12:28:13.798Z,12.73
2023-04-09T12:30:41.523Z,5.35
2023-04-09T12:33:10.981Z,8.10
2023-04-09T12:35:41.531Z,8.80
2023-04-09T12:38:09.662Z,5.10
2023-04-09T12:40:37.287Z,10.95
2023-04-09T12:43:04.821Z,9.93
2023-04-09T12:45:32.687Z,11.27
2023-04-09T12:48:00.226Z,7.25
2023-04-09T12:50:28.772Z,7.68
2023-04-09T12:52:56.612Z,9.82
2023-04-09T12:55:24.179Z,4.53
2023-04-09T12:57:51.969Z,6.65
2023-04-09T13:00:19.610Z,7.97
2023-04-09T13:02:47.335Z,4.05
2023-04-09T13:05:15.176Z,5.80
2023-04-09T13:07:43.576Z,5.03
2023-04-09T13:10:11.582Z,7.00
2023-04-09T13:12:39.560Z,7.45
2023-04-09T13:15:07.473Z,3.63
2023-04-09T13:17:35.256Z,6.85
2023-04-09T13:20:03.749Z,8.13
2023-04-09T13:22:31.369Z,9.05
2023-04-09T13:25:01.320Z,2.67
2023-04-09T13:27:28.898Z,3.75
2023-04-09T13:29:56.471Z,6.47
2023-04-09T13:32:24.472Z,2.80
2023-04-09T13:34:53.904Z,3.63
2023-04-09T13:37:21.983Z,13.93
2023-04-09T13:39:49.677Z,5.90
2023-04-09T13:42:17.401Z,5.93
2023-04-09T13:44:45.515Z,7.72
2023-04-09T13:47:14.056Z,9.68
2023-04-09T13:49:42.193Z,5.22
2023-04-09T13:52:10.700Z,7.35
2023-04-09T13:54:38.567Z,3.42
2023-04-09T13:57:06.563Z,9.15
2023-04-09T13:59:34.191Z,7.35
2023-04-09T14:02:04.336Z,7.45
2023-04-09T14:04:32.218Z,7.13
2023-04-09T14:07:02.568Z,11.82
2023-04-09T14:09:30.412Z,9.68
2023-04-09T14:11:58.100Z,9.23
2023-04-09T14:14:26.090Z,8.85
2023-04-09T14:16:54.148Z,8.32
2023-04-09T14:19:21.686Z,7.50
2023-04-09T14:21:49.388Z,7.97
2023-04-09T14:24:17.049Z,15.02
2023-04-09T14:26:44.644Z,10.93
2023-04-09T14:29:14.257Z,16.13
2023-04-09T14:31:42.960Z,6.70
2023-04-09T14:34:11.327Z,8.18
2023-04-09T14:36:39.470Z,5.53
2023-04-09T14:39:09.573Z,5.30
2023-04-09T14:41:37.168Z,9.70
2023-04-09T14:44:04.750Z,4.60
2023-04-09T14:46:32.295Z,5.82
2023-04-09T14:48:59.928Z,3.22
2023-04-09T14:51:30.848Z,4.05
2023-04-09T14:53:58.700Z,5.07
2023-04-09T14:56:26.250Z,3.53
2023-04-09T14:58:54.306Z,5.25
2023-04-09T15:01:22.790Z,5.35
2023-04-09T15:03:50.820Z,4.63
2023-04-09T15:06:18.630Z,4.50
2023-04-09T15:08:46.281Z,8.25
2023-04-09T15:11:17.500Z,6.18
2023-04-09T15:13:45.198Z,2.92
2023-04-09T15:16:13.007Z,6.00
2023-04-09T15:18:40.635Z,5.35
2023-04-09T15:21:08.263Z,5.88
2023-04-09T15:23:35.860Z,6.32
2023-04-09T15:26:03.493Z,6.72
2023-04-09T15:28:31.240Z,4.97
2023-04-09T15:30:58.853Z,8.98
2023-04-09T15:33:28.105Z,6.00
2023-04-09T15:35:56.849Z,2.95
2023-04-09T15:38:25.255Z,2.58
2023-04-09T15:40:53.347Z,4.28
2023-04-09T15:43:23.503Z,5.35
2023-04-09T15:45:51.694Z,5.93
2023-04-09T15:48:19.776Z,8.30
2023-04-09T15:50:47.504Z,6.10
2023-04-09T15:53:16.043Z,5.90
2023-04-09T15:55:43.906Z,7.85
2023-04-09T15:58:11.784Z,6.70
2023-04-09T16:00:39.493Z,7.60
2023-04-09T16:03:07.152Z,5.97
2023-04-09T16:05:34.802Z,9.68
2023-04-09T16:08:02.379Z,5.28
2023-04-09T16:10:30.532Z,5.15
2023-04-09T16:12:58.254Z,5.38
2023-04-09T16:15:25.877Z,7.35
2023-04-09T16:17:53.554Z,4.85
2023-04-09T16:20:21.242Z,4.95
2023-04-09T16:22:48.856Z,3.00
2023-04-09T16:25:16.483Z,7.53
2023-04-09T16:27:44.112Z,5.40
2023-04-09T16:30:12.018Z,7.13
2023-04-09T16:32:39.871Z,4.68
2023-04-09T16:35:08.606Z,6.72
2023-04-09T16:37:36.445Z,7.00
2023-04-09T16:40:04.512Z,6.03
2023-04-09T16:42:35.178Z,5.38
2023-04-09T16:45:04.625Z,5.72
2023-04-09T16:47:32.800Z,5.57
2023-04-09T16:50:00.484Z,6.68
2023-04-09T16:52:29.387Z,28.50
2023-04-09T16:54:57.132Z,8.90
2023-04-09T16:57:25.609Z,8.40
2023-04-09T16:59:53.257Z,6.53
2023-04-09T17:02:23.061Z,6.78
2023-04-09T17:04:50.765Z,6.40
2023-04-09T17:07:18.522Z,10.27
2023-04-09T17:09:46.327Z,5.45
2023-04-09T17:12:14.130Z,9.05
2023-04-09T17:14:44.807Z,6.53
2023-04-09T17:17:13.027Z,10.57
2023-04-09T17:19:42.816Z,6.30
2023-04-09T17:22:10.833Z,5.97
2023-04-09T17:24:38.583Z,8.05
2023-04-09T17:27:06.168Z,11.30
2023-04-09T17:29:33.718Z,7.30
2023-04-09T17:32:01.523Z,6.32
2023-04-09T17:34:30.328Z,6.90
2023-04-09T17:37:00.007Z,10.65
2023-04-09T17:39:29.556Z,7.90
2023-04-09T17:41:58.332Z,9.80
2023-04-09T17:44:26.089Z,8.88
2023-04-09T17:46:54.435Z,11.02
2023-04-09T17:49:22.492Z,9.02
2023-04-09T17:51:50.235Z,9.75
2023-04-09T17:54:17.815Z,7.18
2023-04-09T17:56:45.852Z,9.50
2023-04-09T17:59:14.073Z,6.10
2023-04-09T18:01:42.091Z,9.27
2023-04-09T18:04:11.101Z,5.57
2023-04-09T18:06:38.896Z,10.88
2023-04-09T18:09:06.460Z,8.35
2023-04-09T18:11:34.070Z,10.55
2023-04-09T18:14:03.033Z,9.70
2023-04-09T18:16:30.871Z,16.55
2023-04-09T18:18:58.573Z,9.80
2023-04-09T18:21:27.196Z,7.53
2023-04-09T18:23:55.225Z,9.02
2023-04-09T18:26:22.960Z,9.77
2023-04-09T18:28:53.495Z,10.85
2023-04-09T18:31:21.516Z,6.55
2023-04-09T18:33:49.262Z,7.38
2023-04-09T18:36:19.389Z,8.23
2023-04-09T18:38:47.028Z,8.57
2023-04-09T18:41:22.494Z,7.45
2023-04-09T18:43:50.104Z,7.53
2023-04-09T18:46:18.209Z,9.18
2023-04-09T18:48:48.991Z,7.90
2023-04-09T18:51:18.850Z,6.78
2023-04-09T18:53:52.938Z,8.35
2023-04-09T18:56:23.118Z,7.22
2023-04-09T18:58:53.992Z,9.07
2023-04-09T19:01:24.519Z,8.73
2023-04-09T19:03:52.388Z,8.13
2023-04-09T19:06:20.547Z,7.53
2023-04-09T19:08:50.178Z,11.20
2023-04-09T19:11:17.980Z,11.00
2023-04-09T19:13:45.667Z,11.13
2023-04-09T19:16:13.578Z,6.93
2023-04-09T19:18:41.471Z,11.02
2023-04-09T19:21:09.192Z,7.47
2023-04-09T19:23:40.381Z,10.25
2023-04-09T19:26:08.249Z,7.55
2023-04-09T19:28:36.214Z,8.95
2023-04-09T19:31:07.080Z,8.52
2023-04-09T19:33:34.803Z,7.60
2023-04-09T19:36:03.423Z,7.38
2023-04-09T19:38:31.296Z,6.80
2023-04-09T19:40:58.954Z,8.77
2023-04-09T19:43:26.668Z,13.73
2023-04-09T19:45:55.283Z,17.02
2023-04-09T19:48:22.913Z,15.50
2023-04-09T19:50:50.739Z,9.23
2023-04-09T19:53:18.745Z,10.60
2023-04-09T19:55:46.402Z,9.43
2023-04-09T19:58:14.186Z,8.00
2023-04-09T20:00:42.128Z,6.32
2023-04-09T20:03:10.607Z,8.23
2023-04-09T20:05:38.680Z,7.20
2023-04-09T20:08:11.760Z,5.35
2023-04-09T20:10:44.641Z,5.85
2023-04-09T20:13:12.416Z,4.75
2023-04-09T20:15:40.125Z,6.90
2023-04-09T20:18:08.139Z,7.95
2023-04-09T20:20:35.858Z,10.05
2023-04-09T20:23:03.599Z,12.88
2023-04-09T20:25:34.975Z,7.82
2023-04-09T20:28:03.508Z,8.13
2023-04-09T20:30:34.393Z,6.28
2023-04-09T20:33:05.329Z,8.18
2023-04-09T20:35:36.527Z,8.15
2023-04-09T20:38:04.382Z,10.07
2023-04-09T20:40:32.355Z,8.02
2023-04-09T20:43:02.733Z,9.45
2023-04-09T20:45:30.500Z,8.38
2023-04-09T20:47:58.404Z,6.75
2023-04-09T20:50:26.188Z,10.25
2023-04-09T20:52:54.105Z,13.20
2023-04-09T20:55:24.455Z,8.50
2023-04-09T20:57:52.122Z,11.48
2023-04-09T21:00:23.323Z,6.68
2023-04-09T21:02:51.907Z,15.18
2023-04-09T21:05:23.952Z,9.52
2023-04-09T21:07:53.141Z,7.97
2023-04-09T21:10:21.039Z,7.03
2023-04-09T21:12:48.906Z,9.57
2023-04-09T21:15:16.813Z,13.52
2023-04-09T21:17:44.606Z,9.95
2023-04-09T21:20:12.503Z,7.28
2023-04-09T21:22:40.259Z,7.80
2023-04-09T21:25:08.194Z,8.23
2023-04-09T21:27:35.970Z,8.20
2023-04-09T21:30:03.813Z,7.60
2023-04-09T21:32:31.589Z,7.15
2023-04-09T21:35:00.583Z,8.65
2023-04-09T21:37:29.405Z,8.90
2023-04-09T21:39:57.033Z,9.90
2023-04-09T21:42:25.375Z,7.35
2023-04-09T21:44:53.088Z,33.50
2023-04-09T21:47:20.949Z,44.33
2023-04-09T21:49:50.280Z,45.55
2023-04-09T21:52:18.298Z,34.67
2023-04-09T21:54:46.592Z,36.35
2023-04-09T21:57:17.365Z,47.25
2023-04-09T21:59:47.918Z,85.63
2023-04-09T22:02:15.714Z,62.63
2023-04-09T22:04:43.539Z,67.18
2023-04-09T22:07:11.707Z,43.60
2023-04-09T22:09:39.541Z,45.13
2023-04-09T22:12:07.685Z,83.30
2023-04-09T22:14:35.859Z,74.93
2023-04-09T22:17:03.747Z,47.78
2023-04-09T22:19:32.299Z,37.90
2023-04-09T22:22:00.050Z,23.40
2023-04-09T22:24:29.784Z,10.10
2023-04-09T22:26:58.997Z,9.80
2023-04-09T22:29:27.203Z,14.68
2023-04-09T22:31:55.786Z,8.48
2023-04-09T22:34:24.484Z,9.82
2023-04-09T22:36:52.211Z,16.08
2023-04-09T22:39:19.916Z,26.40
2023-04-09T22:41:47.742Z,12.52
2023-04-09T22:44:17.845Z,21.80
2023-04-09T22:46:46.457Z,17.20
2023-04-09T22:49:14.239Z,15.40
2023-04-09T22:51:42.854Z,17.30
2023-04-09T22:54:11.718Z,10.57
2023-04-09T22:56:39.800Z,12.25
2023-04-09T22:59:07.620Z,12.25
2023-04-09T23:01:38.034Z,21.20
2023-04-09T23:04:05.971Z,11.65
2023-04-09T23:06:33.813Z,10.98
2023-04-09T23:09:03.916Z,62.70
2023-04-09T23:11:36.622Z,114.18
2023-04-09T23:14:04.378Z,11.05
2023-04-09T23:16:32.393Z,16.88
2023-04-09T23:19:00.996Z,10.50
2023-04-09T23:21:28.715Z,7.72
2023-04-09T23:23:56.483Z,11.88
2023-04-09T23:26:24.305Z,10.38
2023-04-09T23:28:52.209Z,9.02
2023-04-09T23:31:20.183Z,11.18
2023-04-09T23:33:48.038Z,5.53
2023-04-09T23:36:16.612Z,9.25
2023-04-09T23:38:47.025Z,15.00
2023-04-09T23:41:14.858Z,7.88
2023-04-09T23:43:42.762Z,10.43
2023-04-09T23:46:10.742Z,9.80
2023-04-09T23:48:38.762Z,11.60
2023-04-09T23:51:06.790Z,8.32
2023-04-09T23:53:34.547Z,9.05
2023-04-09T23:56:02.466Z,10.40
2023-04-09T23:58:30.272Z,9.27
